Jeppesen Maersk — OWTW2 — position and weather

sailwx.info

Track history (hours):
 
Tides and Currents Weather Stations Pressure Air Temp Water Temp Dewpoint Dewpoint Depression Visibility Wind Speed Wind Dir Waves Ship Positions

Jeppesen Maersk

Last reported at 2017-Jun-28 10:29 UTC. Time now 2017-Jun-29 05:31 UTC.
Position N 01°15' E 104°07'.

Type: Ship (hazmat cat A). MMSI: 219953000.

Date/timePositionNaut miles runAvg speedWind from/ knotsBaromVisibWave heightAir tempDewpointWater temp
2017-Jun-28 10:29N 01°15' E 104°07'715.5
2017-Jun-28 10:00N 01°14' E 104°00'815.6
2017-Jun-28 09:30N 01°12' E 103°53'4 8.7
2017-Jun-28 09:01N 01°12' E 103°48'5 9.4
2017-Jun-28 08:30N 01°16' E 103°45'1 2.0
2017-Jun-28 08:01N 01°17' E 103°46'0 0.0
2017-Jun-28 07:31N 01°17' E 103°46'0 0.0
2017-Jun-28 07:01N 01°17' E 103°46'0 0.0
2017-Jun-28 06:31N 01°17' E 103°46'0 0.0
2017-Jun-28 06:01N 01°17' E 103°46'0 0.0
2017-Jun-28 05:30N 01°17' E 103°46'0 0.0
2017-Jun-28 05:01N 01°17' E 103°46'0 0.0
2017-Jun-28 04:28N 01°17' E 103°46'0 0.0
2017-Jun-28 04:01N 01°17' E 103°46'0 0.0
2017-Jun-28 03:31N 01°17' E 103°46'0 0.0
2017-Jun-28 03:01N 01°17' E 103°46'0 0.0
2017-Jun-28 02:30N 01°17' E 103°46'0 0.0
2017-Jun-28 02:01N 01°17' E 103°46'0 0.0
2017-Jun-28 01:30N 01°17' E 103°46'0 0.0
2017-Jun-28 01:01N 01°17' E 103°46'0 0.0
2017-Jun-28 00:31N 01°17' E 103°46'0 0.0
2017-Jun-28 00:01N 01°17' E 103°46'0 0.0
2017-Jun-27 23:31N 01°17' E 103°46'0 0.0
2017-Jun-27 22:58N 01°17' E 103°46'0 0.0
2017-Jun-27 22:30N 01°17' E 103°46'0 0.0
2017-Jun-27 22:00N 01°17' E 103°46'0 0.1
2017-Jun-27 21:30N 01°17' E 103°45'0 0.1
2017-Jun-27 21:01N 01°17' E 103°46'0 0.0
2017-Jun-27 20:31N 01°17' E 103°46'0 0.0
2017-Jun-27 20:01N 01°17' E 103°46'0 0.0
2017-Jun-27 19:31N 01°17' E 103°46'0 0.0
2017-Jun-27 19:01N 01°17' E 103°46'0 0.0
2017-Jun-27 18:31N 01°17' E 103°46'0 0.0
2017-Jun-27 18:00N 01°17' E 103°46'0 0.0
2017-Jun-27 17:31N 01°17' E 103°46'0 0.0
2017-Jun-27 17:01N 01°17' E 103°46'0 0.0
2017-Jun-27 16:31N 01°17' E 103°46'0 0.0
2017-Jun-27 16:01N 01°17' E 103°46'0 0.0
2017-Jun-27 15:28N 01°17' E 103°46'0 0.0
2017-Jun-27 15:01N 01°17' E 103°46'0 0.0
2017-Jun-27 14:00N 01°17' E 103°46'0 0.0
2017-Jun-27 13:31N 01°17' E 103°46'0 0.0
2017-Jun-27 13:01N 01°17' E 103°46'0 0.0
2017-Jun-27 12:31N 01°17' E 103°46'0 0.0
2017-Jun-27 12:01N 01°17' E 103°46'0 0.4
2017-Jun-27 11:30N 01°17' E 103°46'1 2.1
2017-Jun-27 11:01N 01°16' E 103°45'2 4.8
2017-Jun-27 10:30N 01°15' E 103°43'612.4
2017-Jun-27 10:00N 01°12' E 103°38'4 8.4
2017-Jun-27 09:31N 01°13' E 103°34'612.2
2017-Jun-27 09:00N 01°19' E 103°33'1 1.4
2017-Jun-27 08:28N 01°20' E 103°33'0 0.0
2017-Jun-27 07:55N 01°20' E 103°33'0 0.0
2017-Jun-27 07:22N 01°20' E 103°33'0 0.0
2017-Jun-27 06:55N 01°20' E 103°33'0 0.0
2017-Jun-27 06:28N 01°20' E 103°33'0 0.0
2017-Jun-27 05:58N 01°20' E 103°33'0 0.0
2017-Jun-27 05:28N 01°20' E 103°33'0 0.0
2017-Jun-27 04:58N 01°20' E 103°33'0 0.0
2017-Jun-27 04:22N 01°20' E 103°33'0 0.0
2017-Jun-27 03:52N 01°20' E 103°33'0 0.0
2017-Jun-27 03:28N 01°20' E 103°33'0 0.0
2017-Jun-27 02:58N 01°20' E 103°33'0 0.0
2017-Jun-27 02:22N 01°20' E 103°33'0 0.0
2017-Jun-27 01:58N 01°20' E 103°33'0 0.0
2017-Jun-27 01:28N 01°20' E 103°33'0 0.0
2017-Jun-27 00:55N 01°20' E 103°33'0 0.0
2017-Jun-27 00:28N 01°20' E 103°33'0 0.0
2017-Jun-26 23:58N 01°20' E 103°33'0 0.0
2017-Jun-26 23:28N 01°20' E 103°33'0 0.0
2017-Jun-26 22:58N 01°20' E 103°33'0 0.0
2017-Jun-26 22:28N 01°20' E 103°33'0 0.0
2017-Jun-26 21:58N 01°20' E 103°33'0 0.0
2017-Jun-26 21:28N 01°20' E 103°33'0 0.0
2017-Jun-26 20:58N 01°20' E 103°33'0 0.0
2017-Jun-26 20:25N 01°20' E 103°33'0 0.0
2017-Jun-26 19:55N 01°20' E 103°33'0 0.0
2017-Jun-26 19:28N 01°20' E 103°33'0 0.0
2017-Jun-26 18:58N 01°20' E 103°33'0 0.0
2017-Jun-26 18:28N 01°20' E 103°33'0 0.0
2017-Jun-26 17:58N 01°20' E 103°33'0 0.0
2017-Jun-26 17:28N 01°20' E 103°33'0 0.0
2017-Jun-26 17:00N 01°20' E 103°33'0 0.0
2017-Jun-26 16:30N 01°20' E 103°33'0 0.0
2017-Jun-26 16:00N 01°20' E 103°33'0 0.0
2017-Jun-26 15:30N 01°20' E 103°33'0 0.0
2017-Jun-26 15:00N 01°20' E 103°33'0 0.0
2017-Jun-26 14:30N 01°20' E 103°33'0 0.0
2017-Jun-26 13:30N 01°20' E 103°33'0 0.0
2017-Jun-26 13:00N 01°20' E 103°33'0 0.0
2017-Jun-26 12:31N 01°20' E 103°33'0 0.0
2017-Jun-26 12:00N 01°20' E 103°33'0 0.0
2017-Jun-26 11:31N 01°20' E 103°33'0 0.0
2017-Jun-26 11:00N 01°20' E 103°33'0 0.0
2017-Jun-26 10:30N 01°20' E 103°33'0 0.0
2017-Jun-26 10:00N 01°20' E 103°33'0 0.0
2017-Jun-26 09:30N 01°20' E 103°33'0 0.0
2017-Jun-26 09:00N 01°20' E 103°33'0 0.0
2017-Jun-26 08:30N 01°20' E 103°33'0 0.0
2017-Jun-26 08:00N 01°20' E 103°33'1 1.6
2017-Jun-26 07:30N 01°19' E 103°33'5 9.2
2017-Jun-26 07:00N 01°15' E 103°33'3 6.5
2017-Jun-26 06:30N 01°12' E 103°35'4 9.0
2017-Jun-26 06:00N 01°11' E 103°39'611.1
2017-Jun-26 05:30N 01°09' E 103°44'713.1
2017-Jun-26 05:00N 01°11' E 103°50'612.0
2017-Jun-26 04:30N 01°14' E 103°55'612.2
2017-Jun-26 04:00N 01°15' E 104°01'612.7
2017-Jun-26 03:30N 01°16' E 104°07'1113.1
2017-Jun-26 02:39N 01°18' E 104°18'313.0
2017-Jun-26 02:27N 01°19' E 104°21'95 4.6
2017-Jun-25 06:00N 00°30' E 105°42'15713.1 240 / 41009.710.8 31.024.931.0
2017-Jun-24 18:00S 01°18' E 107°36'15713.1 050 / 51009.610.8 26.024.631.0
2017-Jun-24 06:00S 03°06' E 109°30'14011.7 300 / 161009.810.8 29.022.831.0
2017-Jun-23 18:00S 04°36' E 111°18'15513.0 130 / 181010.010.8 27.025.731.0
2017-Jun-23 06:00S 05°36' E 113°42'18515.4 130 / 151009.410.8 31.024.230.0
2017-Jun-22 18:00S 06°24' E 116°42'18715.6 100 / 131012.510.8 26.024.630.0
2017-Jun-22 06:00S 07°18' E 119°42'17914.9 100 / 81012.010.8 31.023.530.0
2017-Jun-21 18:00S 07°36' E 122°42'14814.2 120 / 41012.710.8 26.023.229.0
2017-Jun-21 07:37S 07°59' E 125°09'213.6
2017-Jun-21 07:30S 07°60' E 125°11'713.2
2017-Jun-21 06:59S 08°01' E 125°18'714.2
2017-Jun-21 06:27S 08°03' E 125°25'612.4
2017-Jun-21 06:00S 08°00' E 125°30'5463.2 100 / 181010.810.8 31.024.230.0
2017-Jun-21 05:59S 08°04' E 125°32'715.0
2017-Jun-21 05:30S 08°06' E 125°39'713.7
2017-Jun-21 05:00S 08°09' E 125°45'715.0
2017-Jun-21 04:30S 08°10' E 125°53'815.5
2017-Jun-21 04:00S 08°11' E 126°00'815.3
2017-Jun-21 03:31S 08°11' E 126°08'815.2
2017-Jun-21 03:00S 08°11' E 126°16'17616.0
2017-Jun-20 16:00S 08°36' E 129°12'0 0.0 140 / 151013.410.8 26.023.229.0
2017-Jun-20 15:00S 08°36' E 129°12'18717.0 140 / 151013.410.8 26.023.229.0
2017-Jun-20 04:00S 09°12' E 132°18'0 0.0 120 / 181012.410.8 28.523.029.0
2017-Jun-20 03:00S 09°12' E 132°18'4214.0 120 / 181012.410.8 28.523.029.0
2017-Jun-20 00:00S 09°18' E 133°00'13214.7 130 / 191013.610.8 26.722.929.0
2017-Jun-19 15:00S 09°42' E 135°12'18715.6 140 / 161013.610.8 26.023.229.0
2017-Jun-19 03:00S 10°18' E 138°18'4314.3 130 / 151012.710.8 28.523.029.0
2017-Jun-19 00:00S 10°30' E 139°00'13014.5 110 / 181012.810.8 26.822.929.0
2017-Jun-18 15:00S 10°42' E 141°12'   140 / 251013.910.8 25.524.128.0
Track history (hours):
 
Tides and Currents Weather Stations Pressure Air Temp Water Temp Dewpoint Dewpoint Depression Visibility Wind Speed Wind Dir Waves Ship Positions

Jeppesen Maersk

Last reported at 2017-Jun-28 10:29 UTC. Time now 2017-Jun-29 05:31 UTC.
Position N 01°15' E 104°07'.

Type: Ship (hazmat cat A). MMSI: 219953000.

Date/timePositionNaut miles runAvg speedWind from/ knotsBaromVisibWave heightAir tempDewpointWater temp
2017-Jun-28 10:29N 01°15' E 104°07'715.5
2017-Jun-28 10:00N 01°14' E 104°00'815.6
2017-Jun-28 09:30N 01°12' E 103°53'4 8.7
2017-Jun-28 09:01N 01°12' E 103°48'5 9.4
2017-Jun-28 08:30N 01°16' E 103°45'1 2.0
2017-Jun-28 08:01N 01°17' E 103°46'0 0.0
2017-Jun-28 07:31N 01°17' E 103°46'0 0.0
2017-Jun-28 07:01N 01°17' E 103°46'0 0.0
2017-Jun-28 06:31N 01°17' E 103°46'0 0.0
2017-Jun-28 06:01N 01°17' E 103°46'0 0.0
2017-Jun-28 05:30N 01°17' E 103°46'0 0.0
2017-Jun-28 05:01N 01°17' E 103°46'0 0.0
2017-Jun-28 04:28N 01°17' E 103°46'0 0.0
2017-Jun-28 04:01N 01°17' E 103°46'0 0.0
2017-Jun-28 03:31N 01°17' E 103°46'0 0.0
2017-Jun-28 03:01N 01°17' E 103°46'0 0.0
2017-Jun-28 02:30N 01°17' E 103°46'0 0.0
2017-Jun-28 02:01N 01°17' E 103°46'0 0.0
2017-Jun-28 01:30N 01°17' E 103°46'0 0.0
2017-Jun-28 01:01N 01°17' E 103°46'0 0.0
2017-Jun-28 00:31N 01°17' E 103°46'0 0.0
2017-Jun-28 00:01N 01°17' E 103°46'0 0.0
2017-Jun-27 23:31N 01°17' E 103°46'0 0.0
2017-Jun-27 22:58N 01°17' E 103°46'0 0.0
2017-Jun-27 22:30N 01°17' E 103°46'0 0.0
2017-Jun-27 22:00N 01°17' E 103°46'0 0.1
2017-Jun-27 21:30N 01°17' E 103°45'0 0.1
2017-Jun-27 21:01N 01°17' E 103°46'0 0.0
2017-Jun-27 20:31N 01°17' E 103°46'0 0.0
2017-Jun-27 20:01N 01°17' E 103°46'0 0.0
2017-Jun-27 19:31N 01°17' E 103°46'0 0.0
2017-Jun-27 19:01N 01°17' E 103°46'0 0.0
2017-Jun-27 18:31N 01°17' E 103°46'0 0.0
2017-Jun-27 18:00N 01°17' E 103°46'0 0.0
2017-Jun-27 17:31N 01°17' E 103°46'0 0.0
2017-Jun-27 17:01N 01°17' E 103°46'0 0.0
2017-Jun-27 16:31N 01°17' E 103°46'0 0.0
2017-Jun-27 16:01N 01°17' E 103°46'0 0.0
2017-Jun-27 15:28N 01°17' E 103°46'0 0.0
2017-Jun-27 15:01N 01°17' E 103°46'0 0.0
2017-Jun-27 14:00N 01°17' E 103°46'0 0.0
2017-Jun-27 13:31N 01°17' E 103°46'0 0.0
2017-Jun-27 13:01N 01°17' E 103°46'0 0.0
2017-Jun-27 12:31N 01°17' E 103°46'0 0.0
2017-Jun-27 12:01N 01°17' E 103°46'0 0.4
2017-Jun-27 11:30N 01°17' E 103°46'1 2.1
2017-Jun-27 11:01N 01°16' E 103°45'2 4.8
2017-Jun-27 10:30N 01°15' E 103°43'612.4
2017-Jun-27 10:00N 01°12' E 103°38'4 8.4
2017-Jun-27 09:31N 01°13' E 103°34'612.2
2017-Jun-27 09:00N 01°19' E 103°33'1 1.4
2017-Jun-27 08:28N 01°20' E 103°33'0 0.0
2017-Jun-27 07:55N 01°20' E 103°33'0 0.0
2017-Jun-27 07:22N 01°20' E 103°33'0 0.0
2017-Jun-27 06:55N 01°20' E 103°33'0 0.0
2017-Jun-27 06:28N 01°20' E 103°33'0 0.0
2017-Jun-27 05:58N 01°20' E 103°33'0 0.0
2017-Jun-27 05:28N 01°20' E 103°33'0 0.0
2017-Jun-27 04:58N 01°20' E 103°33'0 0.0
2017-Jun-27 04:22N 01°20' E 103°33'0 0.0
2017-Jun-27 03:52N 01°20' E 103°33'0 0.0
2017-Jun-27 03:28N 01°20' E 103°33'0 0.0
2017-Jun-27 02:58N 01°20' E 103°33'0 0.0
2017-Jun-27 02:22N 01°20' E 103°33'0 0.0
2017-Jun-27 01:58N 01°20' E 103°33'0 0.0
2017-Jun-27 01:28N 01°20' E 103°33'0 0.0
2017-Jun-27 00:55N 01°20' E 103°33'0 0.0
2017-Jun-27 00:28N 01°20' E 103°33'0 0.0
2017-Jun-26 23:58N 01°20' E 103°33'0 0.0
2017-Jun-26 23:28N 01°20' E 103°33'0 0.0
2017-Jun-26 22:58N 01°20' E 103°33'0 0.0
2017-Jun-26 22:28N 01°20' E 103°33'0 0.0
2017-Jun-26 21:58N 01°20' E 103°33'0 0.0
2017-Jun-26 21:28N 01°20' E 103°33'0 0.0
2017-Jun-26 20:58N 01°20' E 103°33'0 0.0
2017-Jun-26 20:25N 01°20' E 103°33'0 0.0
2017-Jun-26 19:55N 01°20' E 103°33'0 0.0
2017-Jun-26 19:28N 01°20' E 103°33'0 0.0
2017-Jun-26 18:58N 01°20' E 103°33'0 0.0
2017-Jun-26 18:28N 01°20' E 103°33'0 0.0
2017-Jun-26 17:58N 01°20' E 103°33'0 0.0
2017-Jun-26 17:28N 01°20' E 103°33'0 0.0
2017-Jun-26 17:00N 01°20' E 103°33'0 0.0
2017-Jun-26 16:30N 01°20' E 103°33'0 0.0
2017-Jun-26 16:00N 01°20' E 103°33'0 0.0
2017-Jun-26 15:30N 01°20' E 103°33'0 0.0
2017-Jun-26 15:00N 01°20' E 103°33'0 0.0
2017-Jun-26 14:30N 01°20' E 103°33'0 0.0
2017-Jun-26 13:30N 01°20' E 103°33'0 0.0
2017-Jun-26 13:00N 01°20' E 103°33'0 0.0
2017-Jun-26 12:31N 01°20' E 103°33'0 0.0
2017-Jun-26 12:00N 01°20' E 103°33'0 0.0
2017-Jun-26 11:31N 01°20' E 103°33'0 0.0
2017-Jun-26 11:00N 01°20' E 103°33'0 0.0
2017-Jun-26 10:30N 01°20' E 103°33'0 0.0
2017-Jun-26 10:00N 01°20' E 103°33'0 0.0
2017-Jun-26 09:30N 01°20' E 103°33'0 0.0
2017-Jun-26 09:00N 01°20' E 103°33'0 0.0
2017-Jun-26 08:30N 01°20' E 103°33'0 0.0
2017-Jun-26 08:00N 01°20' E 103°33'1 1.6
2017-Jun-26 07:30N 01°19' E 103°33'5 9.2
2017-Jun-26 07:00N 01°15' E 103°33'3 6.5
2017-Jun-26 06:30N 01°12' E 103°35'4 9.0
2017-Jun-26 06:00N 01°11' E 103°39'611.1
2017-Jun-26 05:30N 01°09' E 103°44'713.1
2017-Jun-26 05:00N 01°11' E 103°50'612.0
2017-Jun-26 04:30N 01°14' E 103°55'612.2
2017-Jun-26 04:00N 01°15' E 104°01'612.7
2017-Jun-26 03:30N 01°16' E 104°07'1113.1
2017-Jun-26 02:39N 01°18' E 104°18'313.0
2017-Jun-26 02:27N 01°19' E 104°21'95 4.6
2017-Jun-25 06:00N 00°30' E 105°42'15713.1 240 / 41009.710.8 31.024.931.0
2017-Jun-24 18:00S 01°18' E 107°36'15713.1 050 / 51009.610.8 26.024.631.0
2017-Jun-24 06:00S 03°06' E 109°30'14011.7 300 / 161009.810.8 29.022.831.0
2017-Jun-23 18:00S 04°36' E 111°18'15513.0 130 / 181010.010.8 27.025.731.0
2017-Jun-23 06:00S 05°36' E 113°42'18515.4 130 / 151009.410.8 31.024.230.0
2017-Jun-22 18:00S 06°24' E 116°42'18715.6 100 / 131012.510.8 26.024.630.0
2017-Jun-22 06:00S 07°18' E 119°42'17914.9 100 / 81012.010.8 31.023.530.0
2017-Jun-21 18:00S 07°36' E 122°42'14814.2 120 / 41012.710.8 26.023.229.0
2017-Jun-21 07:37S 07°59' E 125°09'213.6
2017-Jun-21 07:30S 07°60' E 125°11'713.2
2017-Jun-21 06:59S 08°01' E 125°18'714.2
2017-Jun-21 06:27S 08°03' E 125°25'612.4
2017-Jun-21 06:00S 08°00' E 125°30'5463.2 100 / 181010.810.8 31.024.230.0
2017-Jun-21 05:59S 08°04' E 125°32'715.0
2017-Jun-21 05:30S 08°06' E 125°39'713.7
2017-Jun-21 05:00S 08°09' E 125°45'715.0
2017-Jun-21 04:30S 08°10' E 125°53'815.5
2017-Jun-21 04:00S 08°11' E 126°00'815.3
2017-Jun-21 03:31S 08°11' E 126°08'815.2
2017-Jun-21 03:00S 08°11' E 126°16'17616.0
2017-Jun-20 16:00S 08°36' E 129°12'0 0.0 140 / 151013.410.8 26.023.229.0
2017-Jun-20 15:00S 08°36' E 129°12'18717.0 140 / 151013.410.8 26.023.229.0
2017-Jun-20 04:00S 09°12' E 132°18'0 0.0 120 / 181012.410.8 28.523.029.0
2017-Jun-20 03:00S 09°12' E 132°18'4214.0 120 / 181012.410.8 28.523.029.0
2017-Jun-20 00:00S 09°18' E 133°00'13214.7 130 / 191013.610.8 26.722.929.0
2017-Jun-19 15:00S 09°42' E 135°12'18715.6 140 / 161013.610.8 26.023.229.0
2017-Jun-19 03:00S 10°18' E 138°18'4314.3 130 / 151012.710.8 28.523.029.0
2017-Jun-19 00:00S 10°30' E 139°00'13014.5 110 / 181012.810.8 26.822.929.0
2017-Jun-18 15:00S 10°42' E 141°12'   140 / 251013.910.8 25.524.128.0

Dump ship's entire track history